Аэропорт
Угольный (UHMA)

 UHMA / DYR
ЗЦ Хабаровск
Магадан (UHMM)
Магадан (UHMM)
 64.73490, 177.74100  / 194 ft

 UHMA 211500Z 33006MPS CAVOK M21/M23 Q1004 R01/////// NOSIG RMK TDZ R01/33006G08MPS END R01/33006G07MPS QFE749/0999
 TAF UHMA 211050Z 2112/2212 35006MPS 9999 SCT030 TEMPO 2112/2212 31009G14MPS -SN SCT010 BKN020
UHMA_AIP_0217
показать схемы
Название сценария Тип сценария Flight Simulator 9 Flight Simulator X Prepar3D v2 Prepar3D v3 Prepar3D v4 xPlane
uhma-scenery-fs9-1003 бесплатный
uhma-scenery-fsx-1308 бесплатный


2019 © VATRUS division (Privacy Policy)